Pindare Mirim, Brazil
Current Conditions -  °F | °C
As of 6:00 PM on Monday 24 Nov 2014 (Local Time) from SBSL Reporting Station
Few Clouds Few Clouds  
Wind Chill: 82°   Ceiling: Unl
Heat Index: 86°   Visibility: 6mi
Dew Point: 70°   Wind: 16mph
Humidity: 66%   Direction: 40°NE
Pressure: 29.83"   Gusts: NA
Location:  3.61°S, 45.34°W
Report Text: SBSL 242100Z 04014KT 9999 FEW020 28/21 Q1010
Loading
Personal Weather Stations






























Interactive Weather Map New forecast layout! Learn more

10-Day Weather Forecast

Advertisements
Track Severe Weather on mobile